createdAt,value
2018-01-10T00:00:29.880Z,0.00
2018-01-10T00:01:29.877Z,0.00
2018-01-10T00:02:29.872Z,0.00
2018-01-10T00:03:29.869Z,0.00
2018-01-10T00:04:29.863Z,0.00
2018-01-10T00:05:29.859Z,0.00
2018-01-10T00:06:29.855Z,0.00
2018-01-10T00:07:29.850Z,0.00
2018-01-10T00:08:29.845Z,0.00
2018-01-10T00:09:29.841Z,0.00
2018-01-10T00:10:29.841Z,0.00
2018-01-10T00:11:29.838Z,0.00
2018-01-10T00:12:29.832Z,0.00
2018-01-10T00:13:29.825Z,0.00
2018-01-10T00:14:29.821Z,0.00
2018-01-10T00:15:29.816Z,0.00
2018-01-10T00:16:29.811Z,0.00
2018-01-10T00:17:29.807Z,0.00
2018-01-10T00:18:29.802Z,0.00
2018-01-10T00:19:29.805Z,0.00
2018-01-10T00:20:29.793Z,0.00
2018-01-10T00:21:29.788Z,0.00
2018-01-10T00:22:29.785Z,0.00
2018-01-10T00:23:29.783Z,0.00
2018-01-10T00:24:29.775Z,0.00
2018-01-10T00:25:29.773Z,0.00
2018-01-10T00:26:29.767Z,0.00
2018-01-10T00:27:29.762Z,0.00
2018-01-10T00:28:29.758Z,0.00
2018-01-10T00:29:29.753Z,0.00
2018-01-10T00:30:29.748Z,0.00
2018-01-10T00:31:29.745Z,0.00
2018-01-10T00:32:29.740Z,0.00
2018-01-10T00:33:29.736Z,0.00
2018-01-10T00:34:29.732Z,0.00
2018-01-10T00:35:29.727Z,0.00
2018-01-10T00:36:29.721Z,0.00
2018-01-10T00:37:29.718Z,0.00
2018-01-10T00:38:29.713Z,0.00
2018-01-10T00:39:29.710Z,0.00
2018-01-10T00:40:29.704Z,0.00
2018-01-10T00:41:29.700Z,0.00
2018-01-10T00:42:29.694Z,0.00
2018-01-10T00:43:29.690Z,0.00
2018-01-10T00:44:29.686Z,0.00
2018-01-10T00:45:29.683Z,0.00
2018-01-10T00:46:29.678Z,0.00
2018-01-10T00:47:29.673Z,0.00
2018-01-10T00:48:29.669Z,0.00
2018-01-10T00:49:29.663Z,0.00
2018-01-10T00:50:29.659Z,0.00
2018-01-10T00:51:29.656Z,0.00
2018-01-10T00:52:29.650Z,0.00
2018-01-10T00:53:29.648Z,0.00
2018-01-10T00:54:29.642Z,0.00
2018-01-10T00:55:29.641Z,0.00
2018-01-10T00:56:29.633Z,0.00
2018-01-10T00:57:29.631Z,0.00
2018-01-10T00:58:29.625Z,0.00
2018-01-10T00:59:29.620Z,0.00
2018-01-10T01:00:29.619Z,0.00
2018-01-10T01:01:29.611Z,0.00
2018-01-10T01:02:29.606Z,0.00
2018-01-10T01:03:29.601Z,0.00
2018-01-10T01:04:29.596Z,0.00
2018-01-10T01:05:29.593Z,0.00
2018-01-10T01:06:29.589Z,0.00
2018-01-10T01:07:29.584Z,0.00
2018-01-10T01:08:29.578Z,0.00
2018-01-10T01:09:29.574Z,0.00
2018-01-10T01:10:29.570Z,0.00
2018-01-10T01:11:29.565Z,0.00
2018-01-10T01:12:29.560Z,0.00
2018-01-10T01:13:29.555Z,0.00
2018-01-10T01:14:29.552Z,0.00
2018-01-10T01:15:29.547Z,0.00
2018-01-10T01:16:29.542Z,0.00
2018-01-10T01:17:29.536Z,0.00
2018-01-10T01:18:29.533Z,0.00
2018-01-10T01:19:29.528Z,0.00
2018-01-10T01:20:29.523Z,0.00
2018-01-10T01:21:29.521Z,0.00
2018-01-10T01:22:29.513Z,0.00
2018-01-10T01:23:29.515Z,0.00
2018-01-10T01:24:29.504Z,0.00
2018-01-10T01:25:29.500Z,0.00
2018-01-10T01:26:29.495Z,0.00
2018-01-10T01:27:29.489Z,0.00
2018-01-10T01:28:29.485Z,0.00
2018-01-10T01:29:29.480Z,0.00
2018-01-10T01:30:29.475Z,0.00
2018-01-10T01:31:29.471Z,0.00
2018-01-10T01:32:29.465Z,0.00
2018-01-10T01:33:29.459Z,0.00
2018-01-10T01:34:29.455Z,0.00
2018-01-10T01:35:29.452Z,0.00
2018-01-10T01:36:29.445Z,0.00
2018-01-10T01:37:29.441Z,0.00
2018-01-10T01:38:29.439Z,0.00
2018-01-10T01:39:29.432Z,0.00
2018-01-10T01:40:29.426Z,0.00
2018-01-10T01:41:29.421Z,0.00
2018-01-10T01:42:29.416Z,0.00
2018-01-10T01:43:29.413Z,0.00
2018-01-10T01:44:29.406Z,0.00
2018-01-10T01:45:29.403Z,0.00
2018-01-10T01:46:29.396Z,0.00
2018-01-10T01:47:29.392Z,0.00
2018-01-10T01:48:29.387Z,0.00
2018-01-10T01:49:29.382Z,0.00
2018-01-10T01:50:29.378Z,0.00
2018-01-10T01:51:29.373Z,0.00
2018-01-10T01:52:29.369Z,0.00
2018-01-10T01:53:29.363Z,0.00
2018-01-10T01:54:29.358Z,0.00
2018-01-10T01:55:29.352Z,0.00
2018-01-10T01:56:29.347Z,0.00
2018-01-10T01:57:29.341Z,0.00
2018-01-10T01:58:29.339Z,0.00
2018-01-10T01:59:29.332Z,0.00
2018-01-10T02:00:29.325Z,0.00
2018-01-10T02:01:29.320Z,0.00
2018-01-10T02:02:29.316Z,0.00
2018-01-10T02:03:29.311Z,0.00
2018-01-10T02:04:29.305Z,0.00
2018-01-10T02:05:29.301Z,0.00
2018-01-10T02:06:29.296Z,0.00
2018-01-10T02:07:29.291Z,0.00
2018-01-10T02:08:29.286Z,0.00
2018-01-10T02:09:29.279Z,0.00
2018-01-10T02:10:29.276Z,0.00
2018-01-10T02:11:29.271Z,0.00
2018-01-10T02:12:29.265Z,0.00
2018-01-10T02:13:29.260Z,0.00
2018-01-10T02:14:29.255Z,0.00
2018-01-10T02:15:29.249Z,0.00
2018-01-10T02:16:29.244Z,0.00
2018-01-10T02:17:29.238Z,0.00
2018-01-10T02:18:29.233Z,0.00
2018-01-10T02:19:29.228Z,0.00
2018-01-10T02:20:29.221Z,0.00
2018-01-10T02:21:29.217Z,0.00
2018-01-10T02:22:29.212Z,0.00
2018-01-10T02:23:29.207Z,0.00
2018-01-10T02:24:29.207Z,0.00
2018-01-10T02:25:29.196Z,0.00
2018-01-10T02:26:29.191Z,0.00
2018-01-10T02:27:29.188Z,0.00
2018-01-10T02:28:29.179Z,0.00
2018-01-10T02:29:29.175Z,0.00
2018-01-10T02:30:29.172Z,0.00
2018-01-10T02:31:29.165Z,0.00
2018-01-10T02:32:29.160Z,0.00
2018-01-10T02:33:29.153Z,0.00
2018-01-10T02:34:29.148Z,0.00
2018-01-10T02:35:29.144Z,0.00
2018-01-10T02:36:29.138Z,0.00
2018-01-10T02:37:29.132Z,0.00
2018-01-10T02:38:29.128Z,0.00
2018-01-10T02:39:29.122Z,0.00
2018-01-10T02:40:29.115Z,0.00
2018-01-10T02:41:29.111Z,0.00
2018-01-10T02:42:29.107Z,0.00
2018-01-10T02:43:29.103Z,0.00
2018-01-10T02:44:29.096Z,0.00
2018-01-10T02:45:29.089Z,0.00
2018-01-10T02:46:29.086Z,0.00
2018-01-10T02:47:29.080Z,0.00
2018-01-10T02:48:29.075Z,0.00
2018-01-10T02:49:29.068Z,0.00
2018-01-10T02:50:29.064Z,0.00
2018-01-10T02:51:29.059Z,0.00
2018-01-10T02:52:29.053Z,0.00
2018-01-10T02:53:29.048Z,0.00
2018-01-10T02:54:29.042Z,0.00
2018-01-10T02:55:29.037Z,0.00
2018-01-10T02:56:29.032Z,0.00
2018-01-10T02:57:29.025Z,0.00
2018-01-10T02:58:29.021Z,0.00
2018-01-10T02:59:29.016Z,0.00
2018-01-10T03:00:29.010Z,0.00
2018-01-10T03:01:29.004Z,0.00
2018-01-10T03:02:28.998Z,0.00
2018-01-10T03:03:28.993Z,0.00
2018-01-10T03:04:28.988Z,0.00
2018-01-10T03:05:28.983Z,0.00
2018-01-10T03:06:28.977Z,0.00
2018-01-10T03:07:28.972Z,0.00
2018-01-10T03:08:28.967Z,0.00
2018-01-10T03:09:28.962Z,0.00
2018-01-10T03:10:28.956Z,0.00
2018-01-10T03:11:28.951Z,0.00
2018-01-10T03:12:28.945Z,0.00
2018-01-10T03:13:28.939Z,0.00
2018-01-10T03:14:28.934Z,0.00
2018-01-10T03:15:28.929Z,0.00
2018-01-10T03:16:28.924Z,0.00
2018-01-10T03:17:28.919Z,0.00
2018-01-10T03:18:28.911Z,0.00
2018-01-10T03:19:28.906Z,0.00
2018-01-10T03:20:28.900Z,0.00
2018-01-10T03:21:28.895Z,0.00
2018-01-10T03:22:28.890Z,0.00
2018-01-10T03:23:28.885Z,0.00
2018-01-10T03:24:28.878Z,0.00
2018-01-10T03:25:28.874Z,0.00
2018-01-10T03:26:28.868Z,0.00
2018-01-10T03:27:28.864Z,0.00
2018-01-10T03:28:28.857Z,0.00
2018-01-10T03:29:28.851Z,0.00
2018-01-10T03:30:28.848Z,0.00
2018-01-10T03:31:28.843Z,0.00
2018-01-10T03:32:28.834Z,0.00
2018-01-10T03:33:28.828Z,0.00
2018-01-10T03:34:28.823Z,0.00
2018-01-10T03:35:28.819Z,0.00
2018-01-10T03:36:28.812Z,0.00
2018-01-10T03:37:28.806Z,0.00
2018-01-10T03:38:28.804Z,0.00
2018-01-10T03:39:28.796Z,0.00
2018-01-10T03:40:28.790Z,0.00
2018-01-10T03:41:28.784Z,0.00
2018-01-10T03:42:28.779Z,0.00
2018-01-10T03:43:28.774Z,0.00
2018-01-10T03:44:28.767Z,0.00
2018-01-10T03:45:28.761Z,0.00
2018-01-10T03:46:28.757Z,0.00
2018-01-10T03:47:28.750Z,0.00
2018-01-10T03:48:28.744Z,0.00
2018-01-10T03:49:28.738Z,0.00
2018-01-10T03:50:28.733Z,0.00
2018-01-10T03:51:28.728Z,0.00
2018-01-10T03:52:28.722Z,0.00
2018-01-10T03:53:28.716Z,0.00
2018-01-10T03:54:28.710Z,0.00
2018-01-10T03:55:28.704Z,0.00
2018-01-10T03:56:28.698Z,0.00
2018-01-10T03:57:28.692Z,0.00
2018-01-10T03:58:28.688Z,0.00
2018-01-10T03:59:28.682Z,0.00
2018-01-10T04:00:28.676Z,0.00
2018-01-10T04:01:28.669Z,0.00
2018-01-10T04:02:28.664Z,0.00
2018-01-10T04:03:28.659Z,0.00
2018-01-10T04:04:28.652Z,0.00
2018-01-10T04:05:28.650Z,0.00
2018-01-10T04:06:28.644Z,0.00
2018-01-10T04:07:28.636Z,0.00
2018-01-10T04:08:28.628Z,0.00
2018-01-10T04:09:28.625Z,0.00
2018-01-10T04:10:28.617Z,0.00
2018-01-10T04:11:28.612Z,0.00
2018-01-10T04:12:28.605Z,0.00
2018-01-10T04:13:28.600Z,0.00
2018-01-10T04:14:28.595Z,0.00
2018-01-10T04:15:28.589Z,0.00
2018-01-10T04:16:28.581Z,0.00
2018-01-10T04:17:28.576Z,0.00
2018-01-10T04:18:28.571Z,0.00
2018-01-10T04:19:28.564Z,0.00
2018-01-10T04:20:28.559Z,0.00
2018-01-10T04:21:28.552Z,0.00
2018-01-10T04:22:28.547Z,0.00
2018-01-10T04:23:28.541Z,0.00
2018-01-10T04:24:28.533Z,0.00
2018-01-10T04:25:28.529Z,0.00
2018-01-10T04:26:28.523Z,0.00
2018-01-10T04:27:28.518Z,0.00
2018-01-10T04:28:28.510Z,0.00
2018-01-10T04:29:28.505Z,0.00
2018-01-10T04:30:28.500Z,0.00
2018-01-10T04:31:28.493Z,0.00
2018-01-10T04:32:28.486Z,0.00
2018-01-10T04:33:28.480Z,0.00
2018-01-10T04:34:28.475Z,0.00
2018-01-10T04:35:28.469Z,0.00
2018-01-10T04:36:28.463Z,0.00
2018-01-10T04:37:28.457Z,0.00
2018-01-10T04:38:28.451Z,0.00
2018-01-10T04:39:28.446Z,0.00
2018-01-10T04:40:28.438Z,0.00
2018-01-10T04:41:28.435Z,0.00
2018-01-10T04:42:28.427Z,0.00
2018-01-10T04:43:28.421Z,0.00
2018-01-10T04:44:28.414Z,0.00
2018-01-10T04:45:28.409Z,0.00
2018-01-10T04:46:28.403Z,0.00
2018-01-10T04:47:28.398Z,0.00
2018-01-10T04:48:28.391Z,0.00
2018-01-10T04:49:28.386Z,0.00
2018-01-10T04:50:28.385Z,0.00
2018-01-10T04:51:28.375Z,0.00
2018-01-10T04:52:28.366Z,0.00
2018-01-10T04:53:28.361Z,0.00
2018-01-10T04:54:28.355Z,0.00
2018-01-10T04:55:28.350Z,0.00
2018-01-10T04:56:28.342Z,0.00
2018-01-10T04:57:28.337Z,0.00
2018-01-10T04:58:28.330Z,0.00
2018-01-10T04:59:28.326Z,0.00
2018-01-10T05:00:28.318Z,0.00
2018-01-10T05:01:28.311Z,0.00
2018-01-10T05:02:28.306Z,0.00
2018-01-10T05:03:28.301Z,0.00
2018-01-10T05:04:28.293Z,0.00
2018-01-10T05:05:28.288Z,0.00
2018-01-10T05:06:28.282Z,0.00
2018-01-10T05:07:28.276Z,0.00
2018-01-10T05:08:28.269Z,0.00
2018-01-10T05:09:28.264Z,0.00
2018-01-10T05:10:28.263Z,0.00
2018-01-10T05:11:28.252Z,0.00
2018-01-10T05:12:28.244Z,0.00
2018-01-10T05:13:28.238Z,0.00
2018-01-10T05:14:28.237Z,0.00
2018-01-10T05:15:28.235Z,0.00
2018-01-10T05:16:28.220Z,0.00
2018-01-10T05:17:28.215Z,0.00
2018-01-10T05:18:28.209Z,0.00
2018-01-10T05:19:28.208Z,0.00
2018-01-10T05:20:28.197Z,0.00
2018-01-10T05:21:28.190Z,0.00
2018-01-10T05:22:28.185Z,0.00
2018-01-10T05:23:28.177Z,0.00
2018-01-10T05:24:28.171Z,0.00
2018-01-10T05:25:28.166Z,0.00
2018-01-10T05:26:28.160Z,0.00
2018-01-10T05:27:28.154Z,0.00
2018-01-10T05:28:28.148Z,0.00
2018-01-10T05:29:28.145Z,0.00
2018-01-10T05:30:28.136Z,0.00
2018-01-10T05:31:28.130Z,0.00
2018-01-10T05:32:28.122Z,0.00
2018-01-10T05:33:28.118Z,0.00
2018-01-10T05:34:28.111Z,0.00
2018-01-10T05:35:28.106Z,0.00
2018-01-10T05:36:28.099Z,0.00
2018-01-10T05:37:28.092Z,0.00
2018-01-10T05:38:28.086Z,0.00
2018-01-10T05:39:28.081Z,0.00
2018-01-10T05:40:28.083Z,0.00
2018-01-10T05:41:28.071Z,0.00
2018-01-10T05:42:28.063Z,0.00
2018-01-10T05:43:28.056Z,0.00
2018-01-10T05:44:28.051Z,0.00
2018-01-10T05:45:28.045Z,0.00
2018-01-10T05:46:28.039Z,0.00
2018-01-10T05:47:28.032Z,0.00
2018-01-10T05:48:28.026Z,0.00
2018-01-10T05:49:28.019Z,0.00
2018-01-10T05:50:28.013Z,0.00
2018-01-10T05:51:28.008Z,0.00
2018-01-10T05:52:28.001Z,0.00
2018-01-10T05:53:27.995Z,0.00
2018-01-10T05:54:27.990Z,0.00
2018-01-10T05:55:27.988Z,0.00
2018-01-10T05:56:27.975Z,0.00
2018-01-10T05:57:27.971Z,0.00
2018-01-10T05:58:27.965Z,0.00
2018-01-10T05:59:27.960Z,0.00
2018-01-10T06:00:27.951Z,0.00
2018-01-10T06:01:27.945Z,0.00
2018-01-10T06:02:27.939Z,0.00
2018-01-10T06:03:27.934Z,0.00
2018-01-10T06:04:27.927Z,0.00
2018-01-10T06:05:27.920Z,0.00
2018-01-10T06:06:27.915Z,0.00
2018-01-10T06:07:27.908Z,0.00
2018-01-10T06:08:27.908Z,0.00
2018-01-10T06:09:27.938Z,0.00
2018-01-10T06:10:27.889Z,0.00
2018-01-10T06:11:27.884Z,0.00
2018-01-10T06:12:27.878Z,0.00
2018-01-10T06:13:27.871Z,0.00
2018-01-10T06:14:27.878Z,0.00
2018-01-10T06:15:27.859Z,0.00
2018-01-10T06:16:27.853Z,0.00
2018-01-10T06:17:27.851Z,0.00
2018-01-10T06:18:27.840Z,0.00
2018-01-10T06:19:27.834Z,0.00
2018-01-10T06:20:27.827Z,0.00
2018-01-10T06:21:27.821Z,0.00
2018-01-10T06:22:27.816Z,0.00
2018-01-10T06:23:27.809Z,0.00
2018-01-10T06:24:27.804Z,0.00
2018-01-10T06:25:27.797Z,0.00
2018-01-10T06:26:27.791Z,0.00
2018-01-10T06:27:27.786Z,0.00
2018-01-10T06:28:27.778Z,0.00
2018-01-10T06:29:27.774Z,0.00
2018-01-10T06:30:27.767Z,0.00
2018-01-10T06:31:27.762Z,0.00
2018-01-10T06:32:27.754Z,0.00
2018-01-10T06:33:27.748Z,0.00
2018-01-10T06:34:27.742Z,0.00
2018-01-10T06:35:27.737Z,0.00
2018-01-10T06:36:27.740Z,0.00
2018-01-10T06:37:27.723Z,0.00
2018-01-10T06:38:27.718Z,0.00
2018-01-10T06:39:27.711Z,0.00
2018-01-10T06:40:27.707Z,0.00
2018-01-10T06:41:27.698Z,0.00
2018-01-10T06:42:27.694Z,0.00
2018-01-10T06:43:27.686Z,0.00
2018-01-10T06:44:27.680Z,0.00
2018-01-10T06:45:27.675Z,0.00
2018-01-10T06:46:27.669Z,0.00
2018-01-10T06:47:27.662Z,0.00
2018-01-10T06:48:27.656Z,0.00
2018-01-10T06:49:27.651Z,0.00
2018-01-10T06:50:27.645Z,0.00
2018-01-10T06:51:27.639Z,0.00
2018-01-10T06:52:27.632Z,0.00
2018-01-10T06:53:27.626Z,0.00
2018-01-10T06:54:27.620Z,0.00
2018-01-10T06:55:27.615Z,5.63
2018-01-10T06:56:27.608Z,5.63
2018-01-10T06:57:27.602Z,5.63
2018-01-10T06:58:27.595Z,5.63
2018-01-10T06:59:27.590Z,5.63
2018-01-10T07:00:27.582Z,5.63
2018-01-10T07:01:27.577Z,5.63
2018-01-10T07:02:27.572Z,11.25
2018-01-10T07:03:27.565Z,11.25
2018-01-10T07:04:27.558Z,11.25
2018-01-10T07:05:27.552Z,11.25
2018-01-10T07:06:27.547Z,11.25
2018-01-10T07:07:27.541Z,16.88
2018-01-10T07:08:27.533Z,16.88
2018-01-10T07:09:27.527Z,16.88
2018-01-10T07:10:27.522Z,16.88
2018-01-10T07:11:27.516Z,16.88
2018-01-10T07:12:27.508Z,22.50
2018-01-10T07:13:27.503Z,22.50
2018-01-10T07:14:27.496Z,22.50
2018-01-10T07:15:27.490Z,22.50
2018-01-10T07:16:27.482Z,22.50
2018-01-10T07:17:27.476Z,28.13
2018-01-10T07:18:27.472Z,28.13
2018-01-10T07:19:27.465Z,28.13
2018-01-10T07:20:27.458Z,33.75
2018-01-10T07:21:27.452Z,33.75
2018-01-10T07:22:27.446Z,33.75
2018-01-10T07:23:27.440Z,33.75
2018-01-10T07:24:27.431Z,39.38
2018-01-10T07:25:27.427Z,39.38
2018-01-10T07:26:27.419Z,39.38
2018-01-10T07:27:27.414Z,39.38
2018-01-10T07:28:27.407Z,45.00
2018-01-10T07:29:27.400Z,45.00
2018-01-10T07:30:27.394Z,45.00
2018-01-10T07:31:27.390Z,45.00
2018-01-10T07:32:27.386Z,50.63
2018-01-10T07:33:27.376Z,50.63
2018-01-10T07:34:27.370Z,50.63
2018-01-10T07:35:27.364Z,50.63
2018-01-10T07:36:27.356Z,56.25
2018-01-10T07:37:27.350Z,56.25
2018-01-10T07:38:27.344Z,56.25
2018-01-10T07:39:27.338Z,56.25
2018-01-10T07:40:27.331Z,61.88
2018-01-10T07:41:27.325Z,61.88
2018-01-10T07:42:27.320Z,61.88
2018-01-10T07:43:27.313Z,67.50
2018-01-10T07:44:27.307Z,67.50
2018-01-10T07:45:27.302Z,67.50
2018-01-10T07:46:27.295Z,67.50
2018-01-10T07:47:27.290Z,73.13
2018-01-10T07:48:27.283Z,174.38
2018-01-10T07:49:27.276Z,388.13
2018-01-10T07:50:27.270Z,523.13
2018-01-10T07:51:27.264Z,641.25
2018-01-10T07:52:27.258Z,781.88
2018-01-10T07:53:27.253Z,894.38
2018-01-10T07:54:27.248Z,973.13
2018-01-10T07:55:27.255Z,967.50
2018-01-10T07:56:27.240Z,922.50
2018-01-10T07:57:27.236Z,990.00
2018-01-10T07:58:27.231Z,1029.38
2018-01-10T07:59:27.228Z,1006.88
2018-01-10T08:00:27.224Z,933.75
2018-01-10T08:01:27.222Z,866.25
2018-01-10T08:02:27.220Z,770.63
2018-01-10T08:03:27.218Z,686.25
2018-01-10T08:04:27.216Z,646.88
2018-01-10T08:05:27.215Z,708.75
2018-01-10T08:06:27.212Z,641.25
2018-01-10T08:07:27.212Z,416.25
2018-01-10T08:08:27.209Z,191.25
2018-01-10T08:09:27.208Z,146.25
2018-01-10T08:10:27.206Z,146.25
2018-01-10T08:11:27.204Z,151.88
2018-01-10T08:12:27.201Z,151.88
2018-01-10T08:13:27.198Z,163.13
2018-01-10T08:14:27.196Z,168.75
2018-01-10T08:15:27.198Z,208.13
2018-01-10T08:16:27.192Z,225.00
2018-01-10T08:17:27.189Z,196.88
2018-01-10T08:18:27.189Z,151.88
2018-01-10T08:19:27.183Z,185.63
2018-01-10T08:20:27.179Z,174.38
2018-01-10T08:21:27.176Z,151.88
2018-01-10T08:22:27.175Z,151.88
2018-01-10T08:23:27.172Z,146.25
2018-01-10T08:24:27.167Z,140.63
2018-01-10T08:25:27.164Z,146.25
2018-01-10T08:26:27.160Z,174.38
2018-01-10T08:27:27.157Z,393.75
2018-01-10T08:28:27.153Z,601.88
2018-01-10T08:29:27.151Z,568.13
2018-01-10T08:30:27.149Z,534.38
2018-01-10T08:31:27.144Z,438.75
2018-01-10T08:32:27.140Z,371.25
2018-01-10T08:33:27.137Z,315.00
2018-01-10T08:34:27.135Z,292.50
2018-01-10T08:35:27.133Z,275.63
2018-01-10T08:36:27.128Z,247.50
2018-01-10T08:37:27.126Z,191.25
2018-01-10T08:38:27.123Z,151.88
2018-01-10T08:39:27.121Z,151.88
2018-01-10T08:40:27.117Z,151.88
2018-01-10T08:41:27.115Z,146.25
2018-01-10T08:42:27.112Z,146.25
2018-01-10T08:43:27.107Z,151.88
2018-01-10T08:44:27.103Z,191.25
2018-01-10T08:45:27.101Z,275.63
2018-01-10T08:46:27.098Z,298.13
2018-01-10T08:47:27.095Z,258.75
2018-01-10T08:48:27.089Z,180.00
2018-01-10T08:49:27.088Z,157.50
2018-01-10T08:50:27.084Z,168.75
2018-01-10T08:51:27.079Z,236.25
2018-01-10T08:52:27.076Z,286.88
2018-01-10T08:53:27.071Z,286.88
2018-01-10T08:54:27.068Z,241.88
2018-01-10T08:55:27.065Z,247.50
2018-01-10T08:56:27.061Z,236.25
2018-01-10T08:57:27.060Z,208.13
2018-01-10T08:58:27.056Z,236.25
2018-01-10T08:59:27.053Z,281.25
2018-01-10T09:00:27.049Z,264.38
2018-01-10T09:01:27.045Z,225.00
2018-01-10T09:02:27.058Z,253.13
2018-01-10T09:03:27.040Z,286.88
2018-01-10T09:04:27.073Z,258.75
2018-01-10T09:05:27.034Z,348.75
2018-01-10T09:06:27.031Z,495.00
2018-01-10T09:07:27.031Z,523.13
2018-01-10T09:08:27.026Z,410.63
2018-01-10T09:09:27.024Z,281.25
2018-01-10T09:10:27.021Z,315.00
2018-01-10T09:11:27.019Z,478.13
2018-01-10T09:12:27.016Z,360.00
2018-01-10T09:13:27.014Z,191.25
2018-01-10T09:14:27.013Z,388.13
2018-01-10T09:15:27.010Z,680.63
2018-01-10T09:16:27.009Z,433.13
2018-01-10T09:17:27.006Z,180.00
2018-01-10T09:18:27.008Z,174.38
2018-01-10T09:19:27.003Z,174.38
2018-01-10T09:20:26.999Z,191.25
2018-01-10T09:21:26.999Z,275.63
2018-01-10T09:22:26.998Z,393.75
2018-01-10T09:23:26.995Z,416.25
2018-01-10T09:24:26.993Z,421.88
2018-01-10T09:25:26.991Z,444.38
2018-01-10T09:26:26.995Z,331.88
2018-01-10T09:27:26.987Z,225.00
2018-01-10T09:28:26.983Z,298.13
2018-01-10T09:29:26.982Z,343.13
2018-01-10T09:30:26.982Z,320.63
2018-01-10T09:31:26.979Z,371.25
2018-01-10T09:32:26.977Z,438.75
2018-01-10T09:33:26.975Z,382.50
2018-01-10T09:34:26.972Z,371.25
2018-01-10T09:35:26.972Z,466.88
2018-01-10T09:36:26.969Z,686.25
2018-01-10T09:37:26.969Z,523.13
2018-01-10T09:38:26.966Z,562.50
2018-01-10T09:39:26.965Z,815.63
2018-01-10T09:40:26.963Z,849.38
2018-01-10T09:41:26.963Z,585.00
2018-01-10T09:42:26.961Z,393.75
2018-01-10T09:43:26.960Z,517.50
2018-01-10T09:44:26.960Z,781.88
2018-01-10T09:45:26.960Z,781.88
2018-01-10T09:46:26.958Z,697.50
2018-01-10T09:47:26.957Z,635.63
2018-01-10T09:48:26.957Z,343.13
2018-01-10T09:49:26.956Z,410.63
2018-01-10T09:50:26.956Z,416.25
2018-01-10T09:51:26.956Z,511.88
2018-01-10T09:52:26.955Z,855.00
2018-01-10T09:53:26.956Z,1001.25
2018-01-10T09:54:26.955Z,1091.25
2018-01-10T09:55:26.955Z,939.38
2018-01-10T09:56:26.957Z,540.00
2018-01-10T09:57:26.963Z,388.13
2018-01-10T09:58:26.957Z,534.38
2018-01-10T09:59:26.957Z,1102.50
2018-01-10T10:00:26.958Z,1411.88
2018-01-10T10:01:26.958Z,1282.50
2018-01-10T10:02:26.960Z,1040.63
2018-01-10T10:03:26.962Z,781.88
2018-01-10T10:04:26.962Z,714.38
2018-01-10T10:05:26.965Z,798.75
2018-01-10T10:06:26.966Z,860.63
2018-01-10T10:07:26.969Z,545.63
2018-01-10T10:08:26.993Z,646.88
2018-01-10T10:09:26.973Z,826.88
2018-01-10T10:10:26.974Z,787.50
2018-01-10T10:11:26.976Z,478.13
2018-01-10T10:12:26.977Z,315.00
2018-01-10T10:13:26.980Z,646.88
2018-01-10T10:14:26.982Z,1063.13
2018-01-10T10:15:26.985Z,1231.88
2018-01-10T10:16:26.986Z,1226.25
2018-01-10T10:17:26.987Z,1175.63
2018-01-10T10:18:26.991Z,1271.25
2018-01-10T10:19:26.993Z,1018.13
2018-01-10T10:20:26.995Z,793.13
2018-01-10T10:21:26.997Z,663.75
2018-01-10T10:22:27.001Z,635.63
2018-01-10T10:23:27.004Z,798.75
2018-01-10T10:24:27.006Z,832.50
2018-01-10T10:25:27.071Z,883.13
2018-01-10T10:26:27.012Z,742.50
2018-01-10T10:27:27.016Z,708.75
2018-01-10T10:28:27.017Z,826.88
2018-01-10T10:29:27.021Z,1051.88
2018-01-10T10:30:27.025Z,1125.00
2018-01-10T10:31:27.027Z,1147.50
2018-01-10T10:32:27.029Z,1091.25
2018-01-10T10:33:27.033Z,1068.75
2018-01-10T10:34:27.038Z,1125.00
2018-01-10T10:35:27.042Z,1220.63
2018-01-10T10:36:27.044Z,1215.00
2018-01-10T10:37:27.053Z,1125.00
2018-01-10T10:38:27.053Z,1147.50
2018-01-10T10:39:27.057Z,1231.88
2018-01-10T10:40:27.061Z,1113.75
2018-01-10T10:41:27.066Z,1113.75
2018-01-10T10:42:27.072Z,1220.63
2018-01-10T10:43:27.077Z,1254.38
2018-01-10T10:44:27.082Z,1181.25
2018-01-10T10:45:27.086Z,1153.13
2018-01-10T10:46:27.092Z,1243.13
2018-01-10T10:47:27.098Z,1293.75
2018-01-10T10:48:27.103Z,1282.50
2018-01-10T10:49:27.109Z,1321.88
2018-01-10T10:50:27.116Z,1305.00
2018-01-10T10:51:27.122Z,1265.63
2018-01-10T10:52:27.128Z,1282.50
2018-01-10T10:53:27.134Z,1231.88
2018-01-10T10:54:27.141Z,1198.13
2018-01-10T10:55:27.147Z,1192.50
2018-01-10T10:56:27.153Z,1147.50
2018-01-10T10:57:27.160Z,1158.75
2018-01-10T10:58:27.168Z,1147.50
2018-01-10T10:59:27.173Z,1051.88
2018-01-10T11:00:27.180Z,990.00
2018-01-10T11:01:27.187Z,933.75
2018-01-10T11:02:27.195Z,832.50
2018-01-10T11:03:27.201Z,736.88
2018-01-10T11:04:27.209Z,680.63
2018-01-10T11:05:27.214Z,686.25
2018-01-10T11:06:27.222Z,838.13
2018-01-10T11:07:27.229Z,916.88
2018-01-10T11:08:27.234Z,826.88
2018-01-10T11:09:27.242Z,759.38
2018-01-10T11:10:27.248Z,748.13
2018-01-10T11:11:27.254Z,787.50
2018-01-10T11:12:27.261Z,776.25
2018-01-10T11:13:27.267Z,753.75
2018-01-10T11:14:27.275Z,742.50
2018-01-10T11:15:27.279Z,770.63
2018-01-10T11:16:27.286Z,607.50
2018-01-10T11:17:27.293Z,596.25
2018-01-10T11:18:27.300Z,759.38
2018-01-10T11:19:27.305Z,635.63
2018-01-10T11:20:27.312Z,630.00
2018-01-10T11:21:27.362Z,697.50
2018-01-10T11:22:27.324Z,630.00
2018-01-10T11:23:27.332Z,635.63
2018-01-10T11:24:27.335Z,658.13
2018-01-10T11:25:27.343Z,607.50
2018-01-10T11:26:27.349Z,551.25
2018-01-10T11:27:27.356Z,466.88
2018-01-10T11:28:27.360Z,376.88
2018-01-10T11:29:27.366Z,466.88
2018-01-10T11:30:27.373Z,691.88
2018-01-10T11:31:27.378Z,691.88
2018-01-10T11:32:27.384Z,669.38
2018-01-10T11:33:27.389Z,641.25
2018-01-10T11:34:27.396Z,601.88
2018-01-10T11:35:27.402Z,596.25
2018-01-10T11:36:27.414Z,511.88
2018-01-10T11:37:27.413Z,388.13
2018-01-10T11:38:27.419Z,466.88
2018-01-10T11:39:27.426Z,556.88
2018-01-10T11:40:27.430Z,495.00
2018-01-10T11:41:27.436Z,376.88
2018-01-10T11:42:27.442Z,264.38
2018-01-10T11:43:27.449Z,230.63
2018-01-10T11:44:27.454Z,264.38
2018-01-10T11:45:27.461Z,388.13
2018-01-10T11:46:27.466Z,365.63
2018-01-10T11:47:27.470Z,292.50
2018-01-10T11:48:27.474Z,309.38
2018-01-10T11:49:27.479Z,275.63
2018-01-10T11:50:27.484Z,241.88
2018-01-10T11:51:27.488Z,303.75
2018-01-10T11:52:27.493Z,365.63
2018-01-10T11:54:27.504Z,326.25
2018-01-10T11:55:27.506Z,337.50
2018-01-10T11:56:27.511Z,365.63
2018-01-10T11:57:27.514Z,343.13
2018-01-10T11:58:27.520Z,281.25
2018-01-10T11:59:27.523Z,264.38
2018-01-10T12:00:27.526Z,281.25
2018-01-10T12:01:27.531Z,303.75
2018-01-10T12:02:27.537Z,320.63
2018-01-10T12:03:27.541Z,315.00
2018-01-10T12:04:27.544Z,343.13
2018-01-10T12:05:27.549Z,343.13
2018-01-10T12:06:27.552Z,315.00
2018-01-10T12:07:27.558Z,286.88
2018-01-10T12:08:27.559Z,303.75
2018-01-10T12:09:27.566Z,292.50
2018-01-10T12:10:27.568Z,281.25
2018-01-10T12:11:27.572Z,303.75
2018-01-10T12:12:27.577Z,292.50
2018-01-10T12:13:27.580Z,292.50
2018-01-10T12:14:27.585Z,343.13
2018-01-10T12:15:27.593Z,382.50
2018-01-10T12:16:27.591Z,410.63
2018-01-10T12:17:27.596Z,421.88
2018-01-10T12:18:27.600Z,427.50
2018-01-10T12:19:27.614Z,416.25
2018-01-10T12:20:27.607Z,405.00
2018-01-10T12:21:27.610Z,393.75
2018-01-10T12:22:27.616Z,399.38
2018-01-10T12:23:27.619Z,433.13
2018-01-10T12:24:27.624Z,450.00
2018-01-10T12:25:27.635Z,495.00
2018-01-10T12:26:27.632Z,483.75
2018-01-10T12:27:27.637Z,489.38
2018-01-10T12:28:27.640Z,444.38
2018-01-10T12:29:27.644Z,410.63
2018-01-10T12:30:27.647Z,438.75
2018-01-10T12:31:27.651Z,455.63
2018-01-10T12:32:27.656Z,433.13
2018-01-10T12:33:27.660Z,371.25
2018-01-10T12:34:27.664Z,292.50
2018-01-10T12:35:27.667Z,309.38
2018-01-10T12:36:27.670Z,388.13
2018-01-10T12:37:27.676Z,421.88
2018-01-10T12:38:27.680Z,405.00
2018-01-10T12:39:27.682Z,388.13
2018-01-10T12:40:27.685Z,427.50
2018-01-10T12:41:27.695Z,405.00
2018-01-10T12:42:27.693Z,410.63
2018-01-10T12:43:27.698Z,416.25
2018-01-10T12:44:27.702Z,388.13
2018-01-10T12:45:27.706Z,371.25
2018-01-10T12:46:27.713Z,348.75
2018-01-10T12:47:27.712Z,405.00
2018-01-10T12:48:27.715Z,399.38
2018-01-10T12:49:27.720Z,405.00
2018-01-10T12:50:27.724Z,382.50
2018-01-10T12:51:27.730Z,365.63
2018-01-10T12:52:27.732Z,360.00
2018-01-10T12:53:27.735Z,376.88
2018-01-10T12:54:27.741Z,399.38
2018-01-10T12:55:27.744Z,410.63